Time,TemperatureF,DewpointF,PressureIn,WindDirection,WindDirectionDegrees,WindSpeedMPH,WindSpeedGustMPH,Humidity,HourlyPrecipIn,Conditions,Clouds,dailyrainin,SoftwareType,DateUTC
2013-01-12 00:07:00,52.9,52.4,30.06,ESE,112,0.0,-999.0,98,-99.99,,,0.00,Acu-Link.com,2013-01-12 05:07:00,
2013-01-12 00:22:00,53.1,52.5,30.06,ESE,112,0.0,-999.0,98,-99.99,,,0.00,Acu-Link.com,2013-01-12 05:22:00,
2013-01-12 00:37:00,53.1,52.5,30.06,ESE,112,0.0,-999.0,98,-99.99,,,0.01,Acu-Link.com,2013-01-12 05:37:00,
2013-01-12 00:52:00,53.1,52.5,30.06,NE,45,0.0,-999.0,98,-99.99,,,0.01,Acu-Link.com,2013-01-12 05:52:00,
2013-01-12 01:07:00,53.1,52.5,30.06,East,90,0.0,-999.0,98,-99.99,,,0.01,Acu-Link.com,2013-01-12 06:07:00,
2013-01-12 01:22:00,53.1,52.5,30.06,ESE,112,0.0,-999.0,98,-99.99,,,0.02,Acu-Link.com,2013-01-12 06:22:00,
2013-01-12 01:38:00,53.1,52.5,30.05,ESE,112,0.0,-999.0,98,-99.99,,,0.02,Acu-Link.com,2013-01-12 06:38:00,
2013-01-12 01:53:00,53.1,52.5,30.06,ESE,112,0.0,-999.0,98,-99.99,,,0.02,Acu-Link.com,2013-01-12 06:53:00,
2013-01-12 02:08:00,53.1,52.5,30.06,East,90,0.0,-999.0,98,-99.99,,,0.02,Acu-Link.com,2013-01-12 07:08:00,
2013-01-12 02:23:00,53.1,52.5,30.06,East,90,0.0,-999.0,98,-99.99,,,0.02,Acu-Link.com,2013-01-12 07:23:00,
2013-01-12 02:38:00,53.1,52.5,30.06,East,90,0.0,-999.0,98,-99.99,,,0.02,Acu-Link.com,2013-01-12 07:38:00,
2013-01-12 02:53:00,53.2,52.6,30.07,East,90,0.0,-999.0,98,-99.99,,,0.02,Acu-Link.com,2013-01-12 07:53:00,
2013-01-12 03:08:00,53.2,52.6,30.07,East,90,0.0,-999.0,98,-99.99,,,0.02,Acu-Link.com,2013-01-12 08:08:00,
2013-01-12 03:24:00,53.2,52.6,30.06,East,90,0.0,-999.0,98,-99.99,,,0.02,Acu-Link.com,2013-01-12 08:24:00,
2013-01-12 03:39:00,53.4,52.8,30.06,WNW,292,0.0,-999.0,98,-99.99,,,0.02,Acu-Link.com,2013-01-12 08:39:00,
2013-01-12 03:54:00,53.4,52.8,30.05,WNW,292,0.0,-999.0,98,-99.99,,,0.02,Acu-Link.com,2013-01-12 08:54:00,
2013-01-12 04:09:00,53.4,52.8,30.05,South,180,0.0,-999.0,98,-99.99,,,0.02,Acu-Link.com,2013-01-12 09:09:00,
2013-01-12 04:24:00,53.2,52.6,30.05,West,270,0.0,-999.0,98,-99.99,,,0.02,Acu-Link.com,2013-01-12 09:24:00,
2013-01-12 04:39:00,53.1,52.5,30.04,West,270,0.0,-999.0,98,-99.99,,,0.02,Acu-Link.com,2013-01-12 09:39:00,
2013-01-12 04:55:00,52.9,52.4,30.05,West,270,0.0,-999.0,98,-99.99,,,0.02,Acu-Link.com,2013-01-12 09:55:00,
2013-01-12 05:10:00,52.9,52.4,30.04,WNW,292,0.0,-999.0,98,-99.99,,,0.02,Acu-Link.com,2013-01-12 10:10:00,
2013-01-12 05:25:00,52.9,52.4,30.04,West,270,0.0,-999.0,98,-99.99,,,0.02,Acu-Link.com,2013-01-12 10:25:00,
2013-01-12 05:40:00,52.9,52.4,30.04,SSE,157,0.0,-999.0,98,-99.99,,,0.02,Acu-Link.com,2013-01-12 10:40:00,
2013-01-12 05:55:00,52.9,52.4,30.04,SSE,157,0.0,-999.0,98,-99.99,,,0.02,Acu-Link.com,2013-01-12 10:55:00,
2013-01-12 06:10:00,52.9,52.4,30.03,SSE,157,0.0,-999.0,98,-99.99,,,0.02,Acu-Link.com,2013-01-12 11:10:00,
2013-01-12 06:25:00,53.4,52.8,30.04,SW,225,0.0,-999.0,98,-99.99,,,0.02,Acu-Link.com,2013-01-12 11:25:00,
2013-01-12 06:40:00,54.0,53.4,30.04,SW,225,0.0,-999.0,98,-99.99,,,0.02,Acu-Link.com,2013-01-12 11:40:00,
2013-01-12 06:55:00,54.1,53.5,30.04,SW,225,0.0,-999.0,98,-99.99,,,0.02,Acu-Link.com,2013-01-12 11:55:00,
2013-01-12 07:11:00,54.5,53.9,30.05,SW,225,0.0,-999.0,98,-99.99,,,0.02,Acu-Link.com,2013-01-12 12:11:00,
2013-01-12 07:26:00,54.5,53.9,30.05,SW,225,0.0,-999.0,98,-99.99,,,0.02,Acu-Link.com,2013-01-12 12:26:00,
2013-01-12 07:41:00,54.9,54.3,30.05,West,270,0.0,-999.0,98,-99.99,,,0.02,Acu-Link.com,2013-01-12 12:41:00,
2013-01-12 07:56:00,54.9,54.3,30.05,SSW,202,0.0,-999.0,98,-99.99,,,0.02,Acu-Link.com,2013-01-12 12:56:00,
2013-01-12 08:11:00,55.0,54.4,30.06,South,180,0.0,-999.0,98,-99.99,,,0.02,Acu-Link.com,2013-01-12 13:11:00,
2013-01-12 08:26:00,55.2,54.6,30.06,South,180,0.0,-999.0,98,-99.99,,,0.02,Acu-Link.com,2013-01-12 13:26:00,
2013-01-12 08:41:00,55.9,55.3,30.06,SSE,157,0.0,-999.0,98,-99.99,,,0.02,Acu-Link.com,2013-01-12 13:41:00,
2013-01-12 08:56:00,56.7,56.1,30.06,SSW,202,0.0,-999.0,98,-99.99,,,0.02,Acu-Link.com,2013-01-12 13:56:00,
2013-01-12 09:11:00,57.4,56.8,30.06,SW,225,0.0,-999.0,98,-99.99,,,0.02,Acu-Link.com,2013-01-12 14:11:00,
2013-01-12 09:27:00,58.3,57.7,30.06,SW,225,0.0,-999.0,98,-99.99,,,0.02,Acu-Link.com,2013-01-12 14:27:00,
2013-01-12 09:42:00,59.2,58.6,30.07,SW,225,0.0,-999.0,98,-99.99,,,0.02,Acu-Link.com,2013-01-12 14:42:00,
2013-01-12 09:57:00,60.1,59.5,30.07,West,270,0.0,-999.0,98,-99.99,,,0.02,Acu-Link.com,2013-01-12 14:57:00,
2013-01-12 10:12:00,61.0,60.4,30.07,WSW,247,0.0,-999.0,98,-99.99,,,0.02,Acu-Link.com,2013-01-12 15:12:00,
2013-01-12 10:27:00,61.7,61.1,30.07,WSW,247,0.0,-999.0,98,-99.99,,,0.02,Acu-Link.com,2013-01-12 15:27:00,
2013-01-12 10:42:00,62.8,62.2,30.07,SW,225,0.0,-999.0,98,-99.99,,,0.02,Acu-Link.com,2013-01-12 15:42:00,
2013-01-12 10:57:00,63.5,62.9,30.06,ESE,112,0.0,-999.0,98,-99.99,,,0.02,Acu-Link.com,2013-01-12 15:57:00,
2013-01-12 11:13:00,64.6,64.0,30.06,SSE,157,0.0,-999.0,98,-99.99,,,0.02,Acu-Link.com,2013-01-12 16:13:00,
2013-01-12 11:28:00,65.7,65.1,30.05,SW,225,0.0,-999.0,98,-99.99,,,0.02,Acu-Link.com,2013-01-12 16:28:00,
2013-01-12 11:43:00,65.8,64.9,30.05,SE,135,0.0,-999.0,97,-99.99,,,0.02,Acu-Link.com,2013-01-12 16:43:00,
2013-01-12 11:58:00,66.2,64.7,30.03,WSW,247,0.0,-999.0,95,-99.99,,,0.02,Acu-Link.com,2013-01-12 16:58:00,
2013-01-12 12:13:00,67.3,66.1,30.03,SSW,202,0.0,-999.0,96,-99.99,,,0.02,Acu-Link.com,2013-01-12 17:13:00,
2013-01-12 12:28:00,68.4,66.6,30.02,NE,45,0.0,-999.0,94,-99.99,,,0.02,Acu-Link.com,2013-01-12 17:28:00,
2013-01-12 12:44:00,69.3,67.2,30.02,West,270,2.7,-999.0,93,-99.99,,,0.02,Acu-Link.com,2013-01-12 17:44:00,
2013-01-12 12:59:00,70.3,67.5,30.02,ESE,112,2.7,-999.0,91,-99.99,,,0.02,Acu-Link.com,2013-01-12 17:59:00,
2013-01-12 13:14:00,71.4,67.3,30.02,WSW,247,0.0,-999.0,87,-99.99,,,0.02,Acu-Link.com,2013-01-12 18:14:00,
2013-01-12 13:29:00,72.0,67.9,30.01,West,270,2.2,-999.0,87,-99.99,,,0.02,Acu-Link.com,2013-01-12 18:29:00,
2013-01-12 13:44:00,72.5,67.4,30.01,WSW,247,0.0,-999.0,84,-99.99,,,0.02,Acu-Link.com,2013-01-12 18:44:00,
2013-01-12 13:59:00,72.0,66.2,30.01,WNW,292,2.7,-999.0,82,-99.99,,,0.02,Acu-Link.com,2013-01-12 18:59:00,
2013-01-12 14:14:00,71.1,65.3,30.01,NNE,22,0.0,-999.0,82,-99.99,,,0.02,Acu-Link.com,2013-01-12 19:14:00,
2013-01-12 14:29:00,71.1,66.0,30.00,SW,225,0.0,-999.0,84,-99.99,,,0.02,Acu-Link.com,2013-01-12 19:29:00,
2013-01-12 14:44:00,71.1,66.0,30.00,WSW,247,0.0,-999.0,84,-99.99,,,0.02,Acu-Link.com,2013-01-12 19:44:00,
2013-01-12 14:59:00,72.0,66.5,30.00,West,270,1.1,-999.0,83,-99.99,,,0.02,Acu-Link.com,2013-01-12 19:59:00,
2013-01-12 15:15:00,72.3,66.5,30.00,WSW,247,1.1,-999.0,82,-99.99,,,0.02,Acu-Link.com,2013-01-12 20:15:00,
2013-01-12 15:30:00,71.4,66.0,30.00,SW,225,0.0,-999.0,83,-99.99,,,0.02,Acu-Link.com,2013-01-12 20:30:00,
2013-01-12 15:45:00,70.9,65.8,30.00,ESE,112,0.0,-999.0,84,-99.99,,,0.02,Acu-Link.com,2013-01-12 20:45:00,
2013-01-12 16:00:00,70.5,65.4,30.00,South,180,0.0,-999.0,84,-99.99,,,0.02,Acu-Link.com,2013-01-12 21:00:00,
2013-01-12 16:15:00,70.5,65.4,30.00,WSW,247,0.0,-999.0,84,-99.99,,,0.02,Acu-Link.com,2013-01-12 21:15:00,
2013-01-12 16:30:00,69.8,65.1,30.00,South,180,3.2,-999.0,85,-99.99,,,0.02,Acu-Link.com,2013-01-12 21:30:00,
2013-01-12 16:46:00,69.3,64.6,30.00,NW,315,0.0,-999.0,85,-99.99,,,0.02,Acu-Link.com,2013-01-12 21:46:00,
2013-01-12 17:01:00,68.7,64.3,30.00,WSW,247,0.0,-999.0,86,-99.99,,,0.02,Acu-Link.com,2013-01-12 22:01:00,
2013-01-12 17:16:00,67.5,63.5,30.00,WSW,247,0.0,-999.0,87,-99.99,,,0.02,Acu-Link.com,2013-01-12 22:16:00,
2013-01-12 17:31:00,65.7,63.0,29.99,WSW,247,0.0,-999.0,91,-99.99,,,0.02,Acu-Link.com,2013-01-12 22:31:00,
2013-01-12 17:46:00,64.0,61.9,30.00,WSW,247,0.0,-999.0,93,-99.99,,,0.02,Acu-Link.com,2013-01-12 22:46:00,
2013-01-12 18:01:00,62.4,60.6,30.00,WSW,247,0.0,-999.0,94,-99.99,,,0.02,Acu-Link.com,2013-01-12 23:01:00,
2013-01-12 18:16:00,61.0,59.6,30.00,WSW,247,0.0,-999.0,95,-99.99,,,0.02,Acu-Link.com,2013-01-12 23:16:00,
2013-01-12 18:31:00,60.1,59.2,30.00,WSW,247,0.0,-999.0,97,-99.99,,,0.02,Acu-Link.com,2013-01-12 23:31:00,
2013-01-12 18:46:00,59.0,58.4,30.00,WSW,247,0.0,-999.0,98,-99.99,,,0.02,Acu-Link.com,2013-01-12 23:46:00,
2013-01-12 19:02:00,57.9,57.3,30.00,WSW,247,0.0,-999.0,98,-99.99,,,0.02,Acu-Link.com,2013-01-13 00:02:00,
2013-01-12 19:17:00,57.4,56.8,30.00,WSW,247,0.0,-999.0,98,-99.99,,,0.02,Acu-Link.com,2013-01-13 00:17:00,
2013-01-12 19:32:00,57.0,56.4,30.01,WSW,247,0.0,-999.0,98,-99.99,,,0.02,Acu-Link.com,2013-01-13 00:32:00,
2013-01-12 19:47:00,56.5,55.9,30.00,WSW,247,0.0,-999.0,98,-99.99,,,0.02,Acu-Link.com,2013-01-13 00:47:00,
2013-01-12 20:02:00,55.9,55.3,30.00,WSW,247,0.0,-999.0,98,-99.99,,,0.02,Acu-Link.com,2013-01-13 01:02:00,
2013-01-12 20:17:00,55.4,54.8,30.00,WSW,247,0.0,-999.0,98,-99.99,,,0.02,Acu-Link.com,2013-01-13 01:17:00,
2013-01-12 20:32:00,54.7,54.1,30.00,WSW,247,0.0,-999.0,98,-99.99,,,0.02,Acu-Link.com,2013-01-13 01:32:00,
2013-01-12 20:47:00,54.0,53.4,30.00,WSW,247,0.0,-999.0,98,-99.99,,,0.02,Acu-Link.com,2013-01-13 01:47:00,
2013-01-12 21:02:00,53.6,53.0,30.00,WSW,247,0.0,-999.0,98,-99.99,,,0.02,Acu-Link.com,2013-01-13 02:02:00,
2013-01-12 21:18:00,53.4,52.8,29.99,WSW,247,0.0,-999.0,98,-99.99,,,0.02,Acu-Link.com,2013-01-13 02:18:00,
2013-01-12 21:33:00,53.1,52.5,29.99,South,180,0.0,-999.0,98,-99.99,,,0.02,Acu-Link.com,2013-01-13 02:33:00,
2013-01-12 21:48:00,52.5,52.0,29.99,ESE,112,0.0,-999.0,98,-99.99,,,0.02,Acu-Link.com,2013-01-13 02:48:00,
2013-01-12 22:03:00,52.0,51.5,29.99,WSW,247,0.0,-999.0,98,-99.99,,,0.02,Acu-Link.com,2013-01-13 03:03:00,
2013-01-12 22:18:00,51.8,51.3,29.98,WSW,247,0.0,-999.0,98,-99.99,,,0.02,Acu-Link.com,2013-01-13 03:18:00,
2013-01-12 22:33:00,51.6,51.1,29.99,WSW,247,0.0,-999.0,98,-99.99,,,0.02,Acu-Link.com,2013-01-13 03:33:00,
2013-01-12 22:48:00,51.6,51.1,29.99,WSW,247,0.0,-999.0,98,-99.99,,,0.02,Acu-Link.com,2013-01-13 03:48:00,
2013-01-12 23:03:00,51.6,51.1,29.99,WSW,247,0.0,-999.0,98,-99.99,,,0.02,Acu-Link.com,2013-01-13 04:03:00,
2013-01-12 23:18:00,51.4,50.9,29.99,WSW,247,0.0,-999.0,98,-99.99,,,0.02,Acu-Link.com,2013-01-13 04:18:00,
2013-01-12 23:33:00,51.3,50.8,29.99,WSW,247,0.0,-999.0,98,-99.99,,,0.02,Acu-Link.com,2013-01-13 04:33:00,
2013-01-12 23:49:00,51.1,50.6,29.99,WSW,247,0.0,-999.0,98,-99.99,,,0.02,Acu-Link.com,2013-01-13 04:49:00,